Time;durP1;ratioP1;P1;durP2;ratioP2;P2;SDS_P1;SDS_P2;PMS_P1;PMS_P2;Temp;Humidity;BMP_temperature;BMP_pressure;BME280_temperature;BME280_humidity;BME280_pressure;Samples;Min_cycle;Max_cycle;Signal;HPM_P1;HPM_P2
2022/10/07 00:01:52;;;;;;;4.65;1.42;;;;;;;9.56;nan;101752.03;5042240;28;20353;-68
2022/10/07 00:04:18;;;;;;;5.65;1.52;;;;;;;9.54;nan;101753.94;5038050;28;20116;-67
2022/10/07 00:06:43;;;;;;;5.63;1.88;;;;;;;9.52;nan;101754.03;5033026;28;20040;-67
2022/10/07 00:09:09;;;;;;;4.95;1.60;;;;;;;9.52;nan;101748.75;5039973;28;20030;-68
2022/10/07 00:11:34;;;;;;;4.88;1.90;;;;;;;9.54;nan;101744.19;5031085;28;20167;-67
2022/10/07 00:14:02;;;;;;;4.93;1.48;;;;;;;9.56;nan;101752.03;5041717;28;20060;-67
2022/10/07 00:16:33;;;;;;;5.75;1.83;;;;;;;9.51;nan;101748.84;5038515;28;20208;-67
2022/10/07 00:19:01;;;;;;;3.90;1.40;;;;;;;9.49;nan;101742.88;5041474;28;20045;-67
2022/10/07 00:21:30;;;;;;;6.85;2.13;;;;;;;9.45;nan;101741.41;5039102;28;20060;-67
2022/10/07 00:23:57;;;;;;;5.57;1.45;;;;;;;9.47;nan;101747.41;5041180;28;20025;-67
2022/10/07 00:26:25;;;;;;;7.82;1.50;;;;;;;9.43;nan;101745.97;5041407;28;20045;-67
2022/10/07 00:28:50;;;;;;;4.45;1.38;;;;;;;9.43;nan;101741.50;5042735;28;20035;-67
2022/10/07 00:31:22;;;;;;;4.78;1.48;;;;;;;9.45;nan;101746.69;5042392;28;20397;-67
2022/10/07 00:33:47;;;;;;;;;;;;;;;9.45;nan;101739.59;5041347;28;20448;-67
2022/10/07 00:36:15;;;;;;;4.80;1.30;;;;;;;9.45;nan;101733.50;5046085;28;19920;-67
2022/10/07 00:38:41;;;;;;;6.05;1.60;;;;;;;9.46;nan;101733.38;5043626;28;20116;-68
2022/10/07 00:41:08;;;;;;;5.60;1.30;;;;;;;9.47;nan;101728.94;5047311;28;20116;-67
2022/10/07 00:43:34;;;;;;;5.30;1.55;;;;;;;9.47;nan;101729.78;5045295;28;20435;-68
2022/10/07 00:46:15;;;;;;;5.90;1.50;;;;;;;9.50;nan;101728.69;5047290;28;20030;-67
2022/10/07 00:48:43;;;;;;;3.28;1.48;;;;;;;9.50;nan;101716.34;5042399;28;20112;-68
2022/10/07 00:51:09;;;;;;;3.50;1.27;;;;;;;9.52;nan;101706.50;5046782;28;20025;-67
2022/10/07 00:53:39;;;;;;;3.58;1.42;;;;;;;9.53;nan;101705.56;5043298;28;20029;-67
2022/10/07 00:56:06;;;;;;;1.73;1.00;;;;;;;9.51;nan;101699.56;5046900;28;20033;-68
2022/10/07 00:58:34;;;;;;;4.90;1.42;;;;;;;9.45;nan;101705.28;5040887;28;20442;-67
2022/10/07 01:01:00;;;;;;;3.83;1.20;;;;;;;9.34;nan;101692.91;5047035;28;20485;-67
2022/10/07 01:03:26;;;;;;;2.15;1.08;;;;;;;9.23;nan;101695.50;5035905;28;20038;-67
2022/10/07 01:05:51;;;;;;;3.38;1.30;;;;;;;9.15;nan;101687.28;5033944;28;20048;-67
2022/10/07 01:08:19;;;;;;;3.15;1.30;;;;;;;9.05;nan;101697.69;5029496;28;20044;-67
2022/10/07 01:11:14;;;;;;;2.10;1.10;;;;;;;9.01;nan;101687.47;5046596;28;20295;-68
2022/10/07 01:13:59;;;;;;;2.22;1.00;;;;;;;8.95;nan;101680.88;5041728;28;20583;-67
2022/10/07 01:16:36;;;;;;;4.03;0.80;;;;;;;8.87;nan;101677.97;5046629;28;20414;-67
2022/10/07 01:19:21;;;;;;;3.95;1.40;;;;;;;8.85;nan;101680.69;5045101;28;20398;-67
2022/10/07 01:21:52;;;;;;;2.63;0.98;;;;;;;8.83;nan;101677.31;5034750;28;20057;-67
2022/10/07 01:24:32;;;;;;;;;;;;;;;8.79;nan;101682.94;5045409;28;20071;-67
2022/10/07 01:27:02;;;;;;;2.80;1.30;;;;;;;8.74;nan;101677.16;5043019;28;20043;-67
2022/10/07 01:29:42;;;;;;;3.47;1.00;;;;;;;8.73;nan;101680.75;5033992;28;20264;-67
2022/10/07 01:32:20;;;;;;;1.73;0.82;;;;;;;8.69;nan;101678.31;5041777;28;20032;-67
2022/10/07 01:34:48;;;;;;;3.53;1.00;;;;;;;8.68;nan;101675.81;5044372;28;20029;-67
2022/10/07 01:37:16;;;;;;;1.88;0.90;;;;;;;8.65;nan;101671.63;5041095;28;20457;-67
2022/10/07 01:39:48;;;;;;;1.67;0.90;;;;;;;8.60;nan;101675.50;5046040;28;20037;-67
2022/10/07 01:42:14;;;;;;;4.93;1.00;;;;;;;8.54;nan;101671.53;5042724;28;20562;-67
2022/10/07 01:44:43;;;;;;;2.22;1.00;;;;;;;8.48;nan;101666.69;5041978;28;20106;-67
2022/10/07 01:47:08;;;;;;;2.97;1.00;;;;;;;8.42;nan;101661.88;5037297;28;20029;-67
2022/10/07 01:49:33;;;;;;;2.25;0.90;;;;;;;8.38;nan;101660.38;5048054;28;20110;-67
2022/10/07 01:52:39;;;;;;;3.00;1.10;;;;;;;8.33;nan;101651.97;5048166;28;20025;-67
2022/10/07 01:55:34;;;;;;;2.45;1.00;;;;;;;8.33;nan;101651.97;5019155;28;20068;-67
2022/10/07 01:58:26;;;;;;;1.42;0.90;;;;;;;8.27;nan;101650.56;5044737;28;20036;-67
2022/10/07 02:01:18;;;;;;;1.08;0.80;;;;;;;8.20;nan;101649.34;5041521;28;20127;-67
2022/10/07 02:03:49;;;;;;;1.92;1.00;;;;;;;8.15;nan;101651.44;5036068;28;20589;-67
2022/10/07 02:06:39;;;;;;;2.53;1.00;;;;;;;8.08;nan;101649.28;5033976;28;20537;-67
2022/10/07 02:09:17;;;;;;;2.42;0.98;;;;;;;8.02;nan;101641.78;5047517;28;20060;-67
2022/10/07 02:11:47;;;;;;;3.20;1.08;;;;;;;8.04;nan;101652.22;5042531;28;20056;-67
2022/10/07 02:14:17;;;;;;;4.18;1.25;;;;;;;8.03;nan;101648.75;5049132;28;20033;-68
2022/10/07 02:16:48;;;;;;;4.32;1.95;;;;;;;8.03;nan;101640.00;5043116;28;20037;-67
2022/10/07 02:19:24;;;;;;;3.90;1.90;;;;;;;8.02;nan;101640.94;5048285;28;20060;-68
2022/10/07 02:21:51;;;;;;;3.53;1.70;;;;;;;8.09;nan;101637.78;5038193;28;20405;-67
2022/10/07 02:24:21;;;;;;;2.80;1.52;;;;;;;8.17;nan;101639.84;5045218;28;20779;-67
2022/10/07 02:26:50;;;;;;;5.05;2.20;;;;;;;8.26;nan;101633.09;5041242;28;20431;-67
2022/10/07 02:29:19;;;;;;;5.65;2.03;;;;;;;8.26;nan;101633.09;5044395;28;20504;-67
2022/10/07 02:31:47;;;;;;;3.58;1.90;;;;;;;8.21;nan;101622.88;5035163;28;20172;-67
2022/10/07 02:34:14;;;;;;;;;;;;;;;8.14;nan;101621.63;5045391;28;20056;-67
2022/10/07 02:36:44;;;;;;;6.78;3.00;;;;;;;8.08;nan;101612.38;5048168;28;20217;-67
2022/10/07 02:39:11;;;;;;;6.45;3.05;;;;;;;8.02;nan;101611.97;5034448;28;20052;-67
2022/10/07 02:42:05;;;;;;;6.93;3.55;;;;;;;7.93;nan;101607.34;5040271;28;20615;-67
2022/10/07 02:44:43;;;;;;;8.05;3.45;;;;;;;7.88;nan;101619.03;5036769;28;20052;-67
2022/10/07 02:47:54;;;;;;;9.35;3.30;;;;;;;7.80;nan;101613.47;5044548;28;20032;-67
2022/10/07 02:50:24;;;;;;;8.32;3.50;;;;;;;7.71;nan;101608.84;5026019;28;20037;-67
2022/10/07 02:52:53;;;;;;;7.55;2.85;;;;;;;7.69;nan;101610.75;5065662;28;20131;-68
2022/10/07 02:55:23;;;;;;;9.95;3.17;;;;;;;7.67;nan;101604.75;5045779;28;20038;-67
2022/10/07 02:57:51;;;;;;;7.35;2.85;;;;;;;7.67;nan;101607.38;5048155;28;20037;-67
2022/10/07 03:00:18;;;;;;;7.10;3.30;;;;;;;7.69;nan;101608.13;5042952;28;20074;-67
2022/10/07 03:02:54;;;;;;;7.28;2.83;;;;;;;7.68;nan;101606.44;5047114;28;20043;-67
2022/10/07 03:05:21;;;;;;;5.88;3.03;;;;;;;7.66;nan;101609.16;5040788;28;20053;-68
2022/10/07 03:07:48;;;;;;;8.35;3.00;;;;;;;7.68;nan;101602.97;5034265;28;20025;-67
2022/10/07 03:10:15;;;;;;;5.78;3.13;;;;;;;7.61;nan;101595.50;5033058;28;20052;-68
2022/10/07 03:12:41;;;;;;;7.05;3.00;;;;;;;7.60;nan;101604.34;5036774;28;20112;-67
2022/10/07 03:15:07;;;;;;;7.32;3.08;;;;;;;7.53;nan;101603.09;5028227;28;20187;-67
2022/10/07 03:17:32;;;;;;;7.85;3.33;;;;;;;7.43;nan;101597.59;5030308;28;20029;-67
2022/10/07 03:19:58;;;;;;;8.07;3.47;;;;;;;7.37;nan;101595.38;5033794;28;20249;-67
2022/10/07 03:22:23;;;;;;;8.27;3.20;;;;;;;7.34;nan;101590.34;5046097;28;20116;-67
2022/10/07 03:24:48;;;;;;;;;;;;;;;7.31;nan;101590.53;5037450;28;20103;-67
2022/10/07 03:27:13;;;;;;;;;;;;;;;7.26;nan;101587.38;5047936;28;19920;-67
2022/10/07 03:29:38;;;;;;;;;;;;;;;7.23;nan;101585.81;5039507;28;19923;-67
2022/10/07 03:32:04;;;;;;;6.77;2.30;;;;;;;7.22;nan;101578.88;5047836;28;20301;-67
2022/10/07 03:34:30;;;;;;;4.38;2.40;;;;;;;7.19;nan;101575.59;5040629;28;20120;-67
2022/10/07 03:36:56;;;;;;;4.88;2.35;;;;;;;7.18;nan;101580.00;5042921;28;20037;-67
2022/10/07 03:39:21;;;;;;;5.20;2.42;;;;;;;7.14;nan;101577.69;5043905;28;20059;-67
2022/10/07 03:41:48;;;;;;;5.47;2.90;;;;;;;7.11;nan;101576.13;5039602;28;20492;-67
2022/10/07 03:44:14;;;;;;;7.75;3.13;;;;;;;7.07;nan;101576.41;5043386;28;20619;-67
2022/10/07 03:46:39;;;;;;;7.03;2.85;;;;;;;7.02;nan;101556.53;5033077;28;20098;-68
2022/10/07 03:49:05;;;;;;;4.68;2.20;;;;;;;7.05;nan;101562.53;5039203;28;20025;-67
2022/10/07 03:51:31;;;;;;;4.93;2.60;;;;;;;7.04;nan;101563.50;5042160;28;20037;-68
2022/10/07 03:53:57;;;;;;;4.75;2.30;;;;;;;7.02;nan;101553.91;5041239;28;20060;-67
2022/10/07 03:56:22;;;;;;;4.60;2.17;;;;;;;7.00;nan;101558.41;5042973;28;20049;-67
2022/10/07 03:58:48;;;;;;;3.28;1.98;;;;;;;6.99;nan;101564.63;5044379;28;20029;-67
2022/10/07 04:01:14;;;;;;;3.80;2.40;;;;;;;6.98;nan;101559.47;5038003;28;20037;-67
2022/10/07 04:03:40;;;;;;;4.97;2.53;;;;;;;7.03;nan;101554.72;5044668;28;20042;-67
2022/10/07 04:06:05;;;;;;;5.28;2.58;;;;;;;7.02;nan;101564.41;5028562;28;20110;-67
2022/10/07 04:08:32;;;;;;;8.45;3.13;;;;;;;6.98;nan;101562.09;5035784;28;20029;-67
2022/10/07 04:10:58;;;;;;;10.02;4.30;;;;;;;7.00;nan;101561.03;5035680;28;20037;-67
2022/10/07 04:13:23;;;;;;;10.57;4.20;;;;;;;7.01;nan;101554.00;5037654;28;20395;-67
2022/10/07 04:15:49;;;;;;;10.13;4.03;;;;;;;7.03;nan;101565.25;5041917;28;20041;-67
2022/10/07 04:18:14;;;;;;;10.30;4.40;;;;;;;7.02;nan;101561.78;5038451;28;20033;-68
2022/10/07 04:20:39;;;;;;;7.38;3.28;;;;;;;7.02;nan;101559.16;5038114;28;20038;-67
2022/10/07 04:23:05;;;;;;;7.10;2.90;;;;;;;7.02;nan;101556.53;5030735;28;20494;-67
2022/10/07 04:25:33;;;;;;;5.85;3.15;;;;;;;7.02;nan;101561.78;5041375;28;20044;-67
2022/10/07 04:28:14;;;;;;;4.13;2.83;;;;;;;7.05;nan;101559.91;5032764;28;20447;-67
2022/10/07 04:30:42;;;;;;;;;;;;;;;7.04;nan;101556.44;5033323;28;20083;-67
2022/10/07 04:33:08;;;;;;;5.15;2.85;;;;;;;7.04;nan;101560.84;5034820;28;19966;-67
2022/10/07 04:35:37;;;;;;;4.70;2.50;;;;;;;7.03;nan;101560.00;5047659;28;20527;-67
2022/10/07 04:38:02;;;;;;;6.60;3.05;;;;;;;6.96;nan;101548.19;5042530;28;20437;-67
2022/10/07 04:40:28;;;;;;;3.60;2.47;;;;;;;7.07;nan;101558.00;5045070;28;20508;-67
2022/10/07 04:45:39;;;;;;;3.80;1.90;;;;;;;7.11;nan;101535.81;5031452;28;20392;-67
2022/10/07 04:48:05;;;;;;;4.20;2.20;;;;;;;7.11;nan;101536.66;5028039;28;20512;-68
2022/10/07 04:50:37;;;;;;;4.03;1.85;;;;;;;7.07;nan;101529.09;5044407;28;20080;-67
2022/10/07 04:53:04;;;;;;;3.22;1.73;;;;;;;7.03;nan;101531.06;5040663;28;20438;-67
2022/10/07 04:55:36;;;;;;;3.80;2.08;;;;;;;6.95;nan;101534.22;5047033;28;20486;-68
2022/10/07 04:58:01;;;;;;;4.97;2.25;;;;;;;6.89;nan;101524.13;5045268;28;20469;-67
2022/10/07 05:00:26;;;;;;;2.90;1.80;;;;;;;6.97;nan;101529.69;5048471;28;20727;-67
2022/10/07 05:02:51;;;;;;;3.83;2.27;;;;;;;6.90;nan;101522.34;5047277;28;20033;-67
2022/10/07 05:05:17;;;;;;;4.85;2.30;;;;;;;6.84;nan;101522.72;5027490;28;20811;-67
2022/10/07 05:07:42;;;;;;;5.70;2.58;;;;;;;6.77;nan;101525.78;5041112;28;20044;-67
2022/10/07 05:10:08;;;;;;;4.40;2.33;;;;;;;6.75;nan;101522.41;5034461;28;20044;-67
2022/10/07 05:12:34;;;;;;;6.65;2.80;;;;;;;6.73;nan;101515.59;5051844;28;20028;-68
2022/10/07 05:15:00;;;;;;;4.50;2.70;;;;;;;6.73;nan;101516.41;5042640;28;20842;-67
2022/10/07 05:17:25;;;;;;;8.18;2.80;;;;;;;6.69;nan;101516.72;5050719;28;20063;-67
2022/10/07 05:19:51;;;;;;;5.57;2.70;;;;;;;6.68;nan;101517.69;5045851;28;20029;-67
2022/10/07 05:22:16;;;;;;;5.78;2.70;;;;;;;6.67;nan;101508.94;5052007;28;20086;-67
2022/10/07 05:24:41;;;;;;;5.35;2.70;;;;;;;6.77;nan;101503.94;5042906;28;20330;-68
2022/10/07 05:27:06;;;;;;;7.03;2.93;;;;;;;6.90;nan;101510.03;5045830;28;20135;-67
2022/10/07 05:29:32;;;;;;;5.23;2.80;;;;;;;7.08;nan;101505.31;5044024;28;20323;-68
2022/10/07 05:31:58;;;;;;;7.45;3.10;;;;;;;7.19;nan;101505.41;5041351;28;20292;-67
2022/10/07 05:34:23;;;;;;;9.10;3.50;;;;;;;7.24;nan;101510.34;5041217;28;20037;-68
2022/10/07 05:36:49;;;;;;;5.97;3.08;;;;;;;7.17;nan;101506.44;5047098;28;20037;-67
2022/10/07 05:39:14;;;;;;;6.85;3.08;;;;;;;7.19;nan;101508.03;5047258;28;20198;-67
2022/10/07 05:41:40;;;;;;;8.30;2.75;;;;;;;7.21;nan;101500.03;5044670;28;20042;-67
2022/10/07 05:44:05;;;;;;;5.97;3.08;;;;;;;7.21;nan;101498.25;5045632;28;20442;-68
2022/10/07 05:46:30;;;;;;;7.93;3.10;;;;;;;7.25;nan;101501.53;5033677;28;20545;-67
2022/10/07 05:48:56;;;;;;;6.15;2.90;;;;;;;7.22;nan;101506.97;5045539;28;20025;-67
2022/10/07 05:51:23;;;;;;;7.28;3.35;;;;;;;7.17;nan;101503.81;5043143;28;20513;-67
2022/10/07 05:53:52;;;;;;;4.47;3.17;;;;;;;7.13;nan;101497.94;5036779;28;20498;-67
2022/10/07 05:56:20;;;;;;;6.10;3.17;;;;;;;7.17;nan;101495.94;5040623;28;20304;-67
2022/10/07 05:58:46;;;;;;;3.03;2.28;;;;;;;7.23;nan;101493.72;5045314;28;20091;-67
2022/10/07 06:01:15;;;;;;;4.28;2.47;;;;;;;7.33;nan;101493.94;5046752;28;20068;-67
2022/10/07 06:03:42;;;;;;;6.53;3.00;;;;;;;7.37;nan;101490.13;5044082;28;20068;-67
2022/10/07 06:06:08;;;;;;;5.13;2.80;;;;;;;7.51;nan;101494.44;5034345;28;20418;-68
2022/10/07 06:08:34;;;;;;;4.53;2.42;;;;;;;7.49;nan;101493.72;5029426;28;20041;-67
2022/10/07 06:13:52;;;;;;;3.30;2.13;;;;;;;7.56;nan;101494.13;5039269;28;20116;-67
2022/10/07 06:16:17;;;;;;;3.20;2.20;;;;;;;7.60;nan;101496.44;5049299;28;20417;-67
2022/10/07 06:18:43;;;;;;;2.88;1.73;;;;;;;7.79;nan;101498.56;5038401;28;20405;-67
2022/10/07 06:21:08;;;;;;;;;;;;;;;7.82;nan;101503.63;5049471;28;20456;-67
2022/10/07 06:23:34;;;;;;;6.27;2.60;;;;;;;7.85;nan;101500.78;5039555;28;19921;-67
2022/10/07 06:26:01;;;;;;;6.38;3.05;;;;;;;7.92;nan;101501.19;5049063;28;20271;-67
2022/10/07 06:28:38;;;;;;;6.22;2.53;;;;;;;8.00;nan;101501.44;5036844;28;20056;-67
2022/10/07 06:31:05;;;;;;;6.75;2.70;;;;;;;8.15;nan;101494.25;5049320;28;20033;-67
2022/10/07 06:33:31;;;;;;;4.07;2.35;;;;;;;8.44;nan;101497.41;5043821;28;20048;-67
2022/10/07 06:35:56;;;;;;;6.43;2.47;;;;;;;8.64;nan;101497.69;5049562;28;20029;-67
2022/10/07 06:38:22;;;;;;;4.05;2.45;;;;;;;8.83;nan;101502.41;5035295;28;20042;-67
2022/10/07 06:41:00;;;;;;;2.72;1.80;;;;;;;9.05;nan;101506.88;5046282;28;20521;-67
2022/10/07 06:43:27;;;;;;;3.35;2.05;;;;;;;9.21;nan;101501.28;5042977;28;20084;-67
2022/10/07 06:45:57;;;;;;;4.45;2.40;;;;;;;9.48;nan;101503.56;5044809;28;20036;-67
2022/10/07 06:48:23;;;;;;;4.53;1.90;;;;;;;9.79;nan;101501.97;5043120;28;20046;-67
2022/10/07 06:50:49;;;;;;;3.47;1.80;;;;;;;10.02;nan;101504.56;5049150;28;20064;-68
2022/10/07 06:53:15;;;;;;;3.53;1.90;;;;;;;10.11;nan;101501.19;5040754;28;20041;-68
2022/10/07 06:55:40;;;;;;;4.30;2.10;;;;;;;10.35;nan;101508.94;5042700;28;20030;-67
2022/10/07 06:58:05;;;;;;;4.22;2.05;;;;;;;10.43;nan;101509.13;5032022;28;20033;-69
2022/10/07 07:00:31;;;;;;;3.83;1.80;;;;;;;10.47;nan;101515.03;5042162;28;20025;-68
2022/10/07 07:03:00;;;;;;;3.83;1.80;;;;;;;10.46;nan;101521.25;5043492;28;20040;-67
2022/10/07 07:05:30;;;;;;;5.63;2.13;;;;;;;10.46;nan;101519.44;5032156;28;20368;-67
2022/10/07 07:07:56;;;;;;;4.82;2.28;;;;;;;10.60;nan;101513.84;5036594;28;20040;-67
2022/10/07 07:10:21;;;;;;;4.78;2.28;;;;;;;10.80;nan;101506.91;5034556;28;20486;-67
2022/10/07 07:12:46;;;;;;;4.63;2.35;;;;;;;10.79;nan;101501.75;5037611;28;20413;-67
2022/10/07 07:15:11;;;;;;;5.90;2.38;;;;;;;10.61;nan;101504.16;5038239;28;20037;-67
2022/10/07 07:17:37;;;;;;;3.65;1.90;;;;;;;10.41;nan;101513.72;5048369;28;20454;-67
2022/10/07 07:20:02;;;;;;;3.75;2.05;;;;;;;10.20;nan;101516.28;5042850;28;20356;-68
2022/10/07 07:22:29;;;;;;;4.63;2.38;;;;;;;10.00;nan;101508.16;5045912;28;20503;-67
2022/10/07 07:24:54;;;;;;;3.55;2.00;;;;;;;9.87;nan;101499.56;5042298;28;20033;-67
2022/10/07 07:27:20;;;;;;;5.13;2.92;;;;;;;9.74;nan;101504.13;5048474;28;20505;-67
2022/10/07 07:29:45;;;;;;;8.27;4.13;;;;;;;9.58;nan;101499.22;5046578;28;20041;-67
2022/10/07 07:32:10;;;;;;;9.15;3.80;;;;;;;9.60;nan;101497.31;5047248;28;20086;-67
2022/10/07 07:34:37;;;;;;;;;;;;;;;9.61;nan;101495.53;5048993;28;20515;-67
2022/10/07 07:37:02;;;;;;;;;;;;;;;9.57;nan;101503.66;5049379;28;20332;-67
2022/10/07 07:39:27;;;;;;;;;;;;;;;9.66;nan;101490.72;5030181;28;19917;-67
2022/10/07 07:41:52;;;;;;;;;;;;;;;9.67;nan;101498.50;5025536;28;20031;-68
2022/10/07 07:44:18;;;;;;;5.87;2.60;;;;;;;9.76;nan;101496.94;5043078;28;19917;-67
2022/10/07 07:46:49;;;;;;;3.67;2.30;;;;;;;9.96;nan;101496.19;5044166;28;20813;-67
2022/10/07 07:49:14;;;;;;;;;;;;;;;9.90;nan;101490.53;5048583;28;20033;-67
2022/10/07 07:51:44;;;;;;;5.88;2.90;;;;;;;9.89;nan;101486.22;5044793;28;19999;-67
2022/10/07 07:54:11;;;;;;;6.25;2.90;;;;;;;9.97;nan;101486.44;5047353;28;20041;-67
2022/10/07 07:56:36;;;;;;;6.47;2.80;;;;;;;10.10;nan;101489.75;5044716;28;20317;-67
2022/10/07 07:59:02;;;;;;;4.50;2.40;;;;;;;10.30;nan;101489.97;5046436;28;20532;-67
2022/10/07 08:01:31;;;;;;;5.28;2.70;;;;;;;10.48;nan;101482.31;5045891;28;20567;-67
2022/10/07 08:03:57;;;;;;;3.70;2.60;;;;;;;10.67;nan;101487.75;5047501;28;20037;-67
2022/10/07 08:06:26;;;;;;;3.72;2.22;;;;;;;10.87;nan;101494.03;5035687;28;20083;-67
2022/10/07 08:08:53;;;;;;;6.93;2.63;;;;;;;11.09;nan;101492.19;5039536;28;20083;-67
2022/10/07 08:11:19;;;;;;;4.13;2.30;;;;;;;11.27;nan;101483.50;5041251;28;20045;-67
2022/10/07 08:13:46;;;;;;;5.80;2.90;;;;;;;11.59;nan;101495.75;5038083;28;20061;-68
2022/10/07 08:16:15;;;;;;;5.35;2.20;;;;;;;12.04;nan;101491.84;5037155;28;20033;-68
2022/10/07 08:18:43;;;;;;;5.78;2.38;;;;;;;12.64;nan;101489.88;5047437;28;20063;-68
2022/10/07 08:21:09;;;;;;;4.95;2.50;;;;;;;13.25;nan;101478.00;5041375;28;20493;-67
2022/10/07 08:23:36;;;;;;;4.80;2.30;;;;;;;13.35;nan;101481.47;5045791;28;20482;-68
2022/10/07 08:26:02;;;;;;;5.93;2.47;;;;;;;13.64;nan;101479.66;5040881;28;20432;-68
2022/10/07 08:28:28;;;;;;;4.32;2.17;;;;;;;14.28;nan;101485.78;5032666;28;20409;-68
2022/10/07 08:31:00;;;;;;;5.40;2.53;;;;;;;14.78;nan;101478.09;5049120;28;20036;-69
2022/10/07 08:33:25;;;;;;;5.85;2.30;;;;;;;15.33;nan;101468.91;5037185;28;20486;-69
2022/10/07 08:35:56;;;;;;;5.07;2.53;;;;;;;15.45;nan;101464.94;5045541;28;20033;-69
2022/10/07 08:38:21;;;;;;;5.80;2.20;;;;;;;15.84;nan;101467.09;5042865;28;20819;-67
2022/10/07 08:40:52;;;;;;;3.92;2.22;;;;;;;16.18;nan;101467.97;5051214;28;20276;-67
2022/10/07 08:43:20;;;;;;;4.03;2.00;;;;;;;16.58;nan;101464.47;5045923;28;20052;-66
2022/10/07 08:45:46;;;;;;;4.35;2.35;;;;;;;16.92;nan;101472.31;5051394;28;20040;-67
2022/10/07 08:48:28;;;;;;;6.00;3.35;;;;;;;17.07;nan;101463.59;5040376;28;20029;-69
2022/10/07 08:51:05;;;;;;;4.15;2.13;;;;;;;17.17;nan;101458.88;5050790;28;20033;-67
2022/10/07 08:53:33;;;;;;;3.63;1.98;;;;;;;17.54;nan;101452.91;5041176;28;20037;-66
2022/10/07 08:56:15;;;;;;;5.28;2.20;;;;;;;17.93;nan;101457.38;5042702;28;20375;-69
2022/10/07 08:59:15;;;;;;;5.22;2.25;;;;;;;18.01;nan;101451.13;5036347;28;20040;-66
2022/10/07 09:02:14;;;;;;;5.85;2.80;;;;;;;18.16;nan;101449.34;5047150;28;20120;-67
2022/10/07 09:05:20;;;;;;;5.65;2.75;;;;;;;18.09;nan;101448.41;5041641;28;20563;-67
2022/10/07 09:07:52;;;;;;;6.13;2.38;;;;;;;17.93;nan;101444.00;5030570;28;20128;-66
2022/10/07 09:10:34;;;;;;;3.15;1.92;;;;;;;18.03;nan;101446.44;5038651;28;20400;-67
2022/10/07 09:13:05;;;;;;;5.03;2.22;;;;;;;18.25;nan;101444.75;5045158;28;20053;-66
2022/10/07 09:15:53;;;;;;;5.88;2.38;;;;;;;18.44;nan;101441.56;5065716;28;20180;-67
2022/10/07 09:18:24;;;;;;;4.53;2.20;;;;;;;18.73;nan;101442.63;5044876;28;20034;-67
2022/10/07 09:20:54;;;;;;;4.72;2.33;;;;;;;18.87;nan;101441.84;5049959;28;20036;-67
2022/10/07 09:23:30;;;;;;;4.15;2.13;;;;;;;19.13;nan;101432.50;5047944;28;20033;-67
2022/10/07 09:25:56;;;;;;;5.85;2.28;;;;;;;19.02;nan;101432.97;5042274;28;20033;-67
2022/10/07 09:28:32;;;;;;;3.78;2.08;;;;;;;19.65;nan;101423.44;5048047;28;20175;-67
2022/10/07 09:30:58;;;;;;;3.72;2.03;;;;;;;20.12;nan;101426.66;5049717;28;20036;-67
2022/10/07 09:33:24;;;;;;;4.32;2.15;;;;;;;20.61;nan;101423.13;5047373;28;20029;-67
2022/10/07 09:36:03;;;;;;;4.82;2.30;;;;;;;20.85;nan;101423.69;5044352;28;20064;-67
2022/10/07 09:38:37;;;;;;;4.57;2.20;;;;;;;20.52;nan;101427.81;5046555;28;20548;-68
2022/10/07 09:41:30;;;;;;;5.20;2.10;;;;;;;20.41;nan;101422.97;5041334;28;20036;-67
2022/10/07 09:44:02;;;;;;;3.58;2.10;;;;;;;20.14;nan;101419.19;5038701;28;20041;-67
2022/10/07 09:46:40;;;;;;;5.00;2.22;;;;;;;19.45;nan;101409.81;5048094;28;20041;-68
2022/10/07 09:49:06;;;;;;;4.05;1.67;;;;;;;19.08;nan;101403.59;5039443;28;20349;-68
2022/10/07 09:51:34;;;;;;;3.47;1.60;;;;;;;19.55;nan;101414.88;5049853;28;20029;-67
2022/10/07 09:54:05;;;;;;;2.40;1.10;;;;;;;20.35;nan;101418.34;5044261;28;20121;-68
2022/10/07 09:56:35;;;;;;;;;;;;;;;20.99;nan;101410.13;5039287;28;20086;-67
2022/10/07 09:59:20;;;;;;;3.40;1.50;;;;;;;21.24;nan;101409.63;5034475;28;20007;-67
2022/10/07 10:01:55;;;;;;;6.30;2.28;;;;;;;21.23;nan;101401.75;5043768;28;20490;-68
2022/10/07 10:04:29;;;;;;;3.80;1.80;;;;;;;21.77;nan;101399.03;5044598;28;20033;-68
2022/10/07 10:07:00;;;;;;;5.57;2.08;;;;;;;22.29;nan;101395.81;5030094;28;20746;-68
2022/10/07 10:09:26;;;;;;;4.28;2.15;;;;;;;22.49;nan;101388.50;5047315;28;20524;-68
2022/10/07 10:12:13;;;;;;;4.38;1.98;;;;;;;22.13;nan;101395.13;5041122;28;20041;-68
2022/10/07 10:14:50;;;;;;;3.50;1.85;;;;;;;21.94;nan;101393.28;5037035;28;20121;-68
2022/10/07 10:17:22;;;;;;;3.90;1.90;;;;;;;22.12;nan;101393.50;5033412;28;20135;-68
2022/10/07 10:19:47;;;;;;;3.05;1.60;;;;;;;21.85;nan;101392.63;5045062;28;20123;-67
2022/10/07 10:22:31;;;;;;;3.60;1.80;;;;;;;21.99;nan;101388.09;5045785;28;20459;-68
2022/10/07 10:28:08;;;;;;;4.05;1.55;;;;;;;23.82;nan;101377.22;5025209;28;20110;-68
2022/10/07 10:30:46;;;;;;;3.65;1.80;;;;;;;24.87;nan;101371.03;5047150;28;20029;-69
2022/10/07 10:33:24;;;;;;;3.40;1.40;;;;;;;25.72;nan;101367.44;5042137;28;20033;-68
2022/10/07 10:36:11;;;;;;;5.10;2.00;;;;;;;25.61;nan;101357.38;5046981;28;20059;-68
2022/10/07 10:39:00;;;;;;;4.82;1.90;;;;;;;25.58;nan;101349.72;5033742;28;20048;-68
2022/10/07 10:41:35;;;;;;;4.60;1.88;;;;;;;25.83;nan;101346.81;5046222;28;20442;-68
2022/10/07 10:44:34;;;;;;;2.92;1.70;;;;;;;26.21;nan;101351.00;5041652;28;20050;-68
2022/10/07 10:47:21;;;;;;;6.57;2.33;;;;;;;26.14;nan;101339.47;5053481;28;20098;-68
2022/10/07 10:49:55;;;;;;;4.95;1.90;;;;;;;25.71;nan;101332.44;5025669;28;20033;-68
2022/10/07 10:52:43;;;;;;;4.80;1.90;;;;;;;25.70;nan;101337.03;5033402;28;20367;-68
2022/10/07 10:55:38;;;;;;;4.38;2.10;;;;;;;25.75;nan;101331.75;5043686;28;20136;-68
2022/10/07 10:58:26;;;;;;;5.35;2.10;;;;;;;25.28;nan;101328.09;5031493;28;20036;-68
2022/10/07 11:00:57;;;;;;;4.03;1.88;;;;;;;24.78;nan;101313.72;5048780;28;20095;-68
2022/10/07 11:03:32;;;;;;;5.43;1.95;;;;;;;24.75;nan;101314.16;5044068;28;20102;-68
2022/10/07 11:06:04;;;;;;;6.97;2.20;;;;;;;24.68;nan;101310.72;5032493;28;20030;-68
2022/10/07 11:08:31;;;;;;;;;;;;;;;24.91;nan;101312.72;5041746;28;20033;-68
2022/10/07 11:11:00;;;;;;;5.05;2.00;;;;;;;25.06;nan;101308.78;5049846;28;19923;-68
2022/10/07 11:13:45;;;;;;;4.25;2.28;;;;;;;25.50;nan;101298.59;5028970;28;20411;-69
2022/10/07 11:16:21;;;;;;;3.45;1.80;;;;;;;25.30;nan;101296.19;5047412;28;20037;-68
2022/10/07 11:18:54;;;;;;;6.20;2.50;;;;;;;25.10;nan;101297.28;5041568;28;20037;-69
2022/10/07 11:21:26;;;;;;;4.97;1.90;;;;;;;25.29;nan;101289.97;5041436;28;20596;-68
2022/10/07 11:24:00;;;;;;;3.85;2.13;;;;;;;25.14;nan;101276.81;5034312;28;20038;-68
2022/10/07 11:26:44;;;;;;;;;;;;;;;24.33;nan;101275.31;5040391;28;20069;-68
2022/10/07 11:29:30;;;;;;;;;;;;;;;24.18;nan;101270.28;5038356;28;19925;-68
2022/10/07 11:32:05;;;;;;;4.30;1.88;;;;;;;24.16;nan;101258.88;5029063;28;19921;-68
2022/10/07 11:34:42;;;;;;;2.75;1.33;;;;;;;24.19;nan;101263.81;5037595;28;20992;-68
2022/10/07 11:37:16;;;;;;;3.50;1.50;;;;;;;23.94;nan;101258.47;5040623;28;20423;-68
2022/10/07 11:39:41;;;;;;;2.70;1.40;;;;;;;23.65;nan;101262.66;5023648;28;20410;-68
2022/10/07 11:42:22;;;;;;;3.37;1.50;;;;;;;23.39;nan;101253.72;5034485;28;20413;-69
2022/10/07 11:45:05;;;;;;;3.00;1.58;;;;;;;23.45;nan;101252.00;5040241;28;20453;-68
2022/10/07 11:47:37;;;;;;;2.50;1.40;;;;;;;23.46;nan;101248.25;5037431;28;20397;-68
2022/10/07 11:50:13;;;;;;;2.72;1.25;;;;;;;23.17;nan;101238.91;5030388;28;20413;-68
2022/10/07 11:52:42;;;;;;;4.65;1.50;;;;;;;23.03;nan;101244.41;5037483;28;20446;-68
2022/10/07 11:55:18;;;;;;;3.05;1.50;;;;;;;22.77;nan;101244.53;5039259;28;20552;-68
2022/10/07 11:57:52;;;;;;;6.13;1.73;;;;;;;22.23;nan;101235.81;5031102;28;20112;-68
2022/10/07 12:00:27;;;;;;;5.30;1.77;;;;;;;21.98;nan;101223.00;5037087;28;20037;-68
2022/10/07 12:03:16;;;;;;;4.25;1.45;;;;;;;21.79;nan;101223.84;5038743;28;20033;-68
2022/10/07 12:05:48;;;;;;;3.80;1.60;;;;;;;21.62;nan;101216.19;5023990;28;20033;-67
2022/10/07 12:08:24;;;;;;;;;;;;;;;21.48;nan;101214.56;5030076;28;20390;-67
2022/10/07 12:10:54;;;;;;;5.05;2.05;;;;;;;21.39;nan;101205.84;5037937;28;19925;-67
2022/10/07 12:13:20;;;;;;;4.97;1.92;;;;;;;21.37;nan;101207.88;5040144;28;20469;-67
2022/10/07 12:15:46;;;;;;;6.03;2.03;;;;;;;21.03;nan;101203.50;5030896;28;20425;-67
2022/10/07 12:18:16;;;;;;;5.28;1.90;;;;;;;20.94;nan;101196.66;5039401;28;20068;-67